Terminal Aerodrome Forecast
Issued by NWS Omaha/Valley, NE

Home | Current Version | Previous Version | Text Only | Print | Product List | Glossary On
Versions: 1 2 3 4 5 6 7 8 9 10 11 12 13 14 15 16 17
000
FTUS43 KOAX 191130
TAFLNK
TAF
KLNK 191130Z 1912/2012 17004KT P6SM BKN040
     FM191300 17004KT 6SM BR OVC015
     FM191400 17005KT 4SM BR OVC008
     FM200200 15004KT 2SM BR OVC003
     FM200600 VRB03KT 1/2SM FG OVC003=

USA.gov is the U.S. government's official web portal to all federal, state and local government web resources and services.